Flugplatz Gunzenhausen-Reutberg

Für EDMH sind keine METAR/TAF Berichte vorhanden.
Es werden die Flugwettermeldungen vom Flugplatz Ansbach Army Heliport in 24 km Entfernung angezeigt.

Prognose für ETEB

vom 22.03. um 17:10 UTC

Zwischen 17:00 UTC und 08:00 UTC

variable Windrichtung mit 6 kt

Sichtweite 10 km oder mehr

keine Wolken


Am 23.03. zwischen 08:00 und 09:00 UTC übergehend zu

Wind 9 kt aus 290°

Sichtweite 10 km oder mehr

gering bewölkt in 4000 ft

TAF ETEB 221710Z 2217/2323 VRB06KT 9999 SKC QNH3037INS BECMG 2308/2309 29009KT 9999 FEW040 QNH3033INS TX19/2217Z TNM01/2306Z LAST NO AMDS AFT 2217 NEXT 2422
Impressum